Nearby METAR Reports

 

KSJC - San Jose, California, USA
Distance from station: NE 9mi, 14km
Updated: 06/12/2024 1:53pm
Clear
Clear
 Wind from SSW
Wind: SSW 13 mph, 20 km/h
Temperature: 82°F, 28°C
Dew Point: 54°F, 12°C
Humidity: 37%
Barometer: 29.87 inHg, 1011.5 hPa
Clouds: Clear
Visibility: 10 miles, 16 km
2024/06/12 21:53 KSJC 122153Z 20011KT 10SM CLR 28/12 A2987 RMK AO2 SLP115 T02780117
KNUQ - Moffett Nas/Mtn, California, USA
Distance from station: N 9mi, 14km
Updated: 06/12/2024 2:35pm
Haze, Clear
Haze, Clear
 Wind from N
Wind: N 16 mph, 26 km/h
Temperature: 73°F, 23°C
Dew Point: 55°F, 13°C
Humidity: 53%
Barometer: 29.88 inHg, 1011.9 hPa
Summary: Haze
Clouds: Clear
Visibility: 6 miles, 10 km
2024/06/12 22:35 KNUQ 122235Z AUTO 35014KT 6SM HZ CLR 23/13 A2988 RMK AO2
 
KPAO - Palo Alto, California, USA
Distance from station: NNW 14mi, 23km
Updated: 06/12/2024 1:47pm
Haze, Clear
Haze, Clear
 Wind from NNW
Wind: NNW 15 mph, 24 km/h
Temperature: 73°F, 23°C
Dew Point: 55°F, 13°C
Humidity: 53%
Barometer: 29.89 inHg, 1012.2 hPa
Summary: Haze
Clouds: Clear
Visibility: 8 miles, 13 km
2024/06/12 21:47 KPAO 122147Z 34013KT 8SM HZ SKC 23/13 A2989 RMK PAEW L OF RWY31
KRHV - San Jose/Reid, California, USA
Distance from station: ENE 12mi, 19km
Updated: 06/12/2024 2:47pm
Clear
Clear
 Wind from WSW
Wind: WSW 9 mph, 15 km/h
Temperature: 82°F, 28°C
Dew Point: 54°F, 12°C
Humidity: 37%
Barometer: 29.87 inHg, 1011.5 hPa
Clouds: Clear
Visibility: 10 miles, 16 km
2024/06/12 22:47 KRHV 122247Z 25008KT 10SM SKC 28/12 A2987
 
KOAK - Oakland, California, USA
Distance from station: NNW 31mi, 50km
Updated: 06/12/2024 1:53pm
Clear
Clear
 Wind from NW
Wind: NW 17 mph, 28 km/h
Temperature: 68°F, 20°C
Dew Point: 54°F, 12°C
Humidity: 60%
Barometer: 29.91 inHg, 1012.9 hPa
Clouds: Clear
Visibility: 9 miles, 14 km
2024/06/12 21:53 KOAK 122153Z 31015KT 9SM CLR 20/12 A2991 RMK AO2 PK WND 32029/2142 SLP127 T02000122
KSQL - San Carlos Airpo, California, USA
Distance from station: NW 21mi, 34km
Updated: 06/12/2024 2:47pm
Clear
Clear
 Wind from calm
Wind: Calm
Temperature: 72°F, 22°C
Dew Point: 54°F, 12°C
Humidity: 53%
Barometer: 29.89 inHg, 1012.2 hPa
Clouds: Clear
Visibility: 10 miles, 16 km
2024/06/12 22:47 KSQL 122247Z 00000KT 10SM CLR 22/12 A2989
 
KSFO - San Francisco, California, USA
Distance from station: NW 30mi, 49km
Updated: 06/12/2024 1:56pm
Few Clouds
Few Clouds
 Wind from S
Wind: S 12 mph, 19 km/h
Temperature: 70°F, 21°C
Dew Point: 52°F, 11°C
Humidity: 53%
Barometer: 29.90 inHg, 1012.5 hPa
Clouds: Few Clouds
Visibility: 10 miles, 16 km
Cloud details: Few Clouds 1100 ft
2024/06/12 21:56 KSFO 122156Z 19010KT 10SM FEW011 21/11 A2990 RMK AO2 SLP125 T02110111
KE16 - San Martin, California, USA
Distance from station: ESE 27mi, 43km
Updated: 06/12/2024 2:35pm
Clear
Clear
 Wind from S
Wind: S 15 mph, 24 km/h
Temperature: 68°F, 20°C
Dew Point: 54°F, 12°C
Humidity: 60%
Barometer: 29.94 inHg, 1013.9 hPa
Clouds: Clear
Visibility: 10 miles, 16 km
2024/06/12 22:35 KE16 122235Z AUTO 18013KT 10SM CLR 20/12 A2994 RMK AO2 PWINO PNO
 
KWVI - Watsonville, California, USA
Distance from station: SSE 27mi, 44km
Updated: 06/12/2024 1:53pm
Overcast
Overcast
 Wind from W
Wind: W 8 mph, 13 km/h, Gust: 17 mph, 28 km/h
Temperature: 63°F, 17°C
Dew Point: 54°F, 12°C
Humidity: 73%
Barometer: 29.99 inHg, 1015.6 hPa
Clouds: Overcast
Visibility: 10 miles, 16 km
Cloud details: Overcast 1700 ft
2024/06/12 21:53 KWVI 122153Z AUTO 27007G15KT 240V330 10SM OVC017 17/12 A2999 RMK AO2 SLP154 T01720117
KHAF - Half Moon Bay, California, USA
Distance from station: WNW 31mi, 50km
Updated: 06/12/2024 2:35pm
Haze, Partly cloudy
Haze, Partly cloudy
 Wind from S
Wind: S 17 mph, 28 km/h
Temperature: 59°F, 15°C
Dew Point: 54°F, 12°C
Humidity: 82%
Barometer: 29.97 inHg, 1014.9 hPa
Summary: Haze
Clouds: Partly cloudy
Visibility: 3 miles, 5 km
Cloud details: Partly cloudy 1900 ft
2024/06/12 22:35 KHAF 122235Z AUTO 18015KT 3SM HZ SCT019 15/12 A2997 RMK AO2
 
KHWD - Hayward, California, USA
Distance from station: N 28mi, 44km
Updated: 06/12/2024 1:54pm
Clear
Clear
 Wind from WNW
Wind: WNW 12 mph, 19 km/h, Gust: 22 mph, 35 km/h
Temperature: 73°F, 23°C
Dew Point: 54°F, 12°C
Humidity: 50%
Barometer: 29.89 inHg, 1012.2 hPa
Clouds: Clear
Visibility: 10 miles, 16 km
2024/06/12 21:54 KHWD 122154Z 29010G19KT 10SM CLR 23/12 A2989 RMK AO2 SLP131 T02330117
KLVK - Livermore, California, USA
Distance from station: NNE 31mi, 51km
Updated: 06/12/2024 2:05pm
Clear
Clear
 Wind from W
Wind: W 12 mph, 19 km/h, Gust: 21 mph, 33 km/h
Temperature: 84°F, 29°C
Dew Point: 55°F, 13°C
Humidity: 37%
Barometer: 29.84 inHg, 1010.5 hPa
Clouds: Clear
Visibility: 10 miles, 16 km
2024/06/12 22:05 KLVK 122205Z 28010G18KT 10SM CLR 29/13 A2984 RMK AO2 WSHFT 2145 T02940133